Никитовка

СКИДКИ НА СМАРТФОНЫ!

Карта отелей и гостиниц, располагающихся рядом с аэропортом Никитовка :

Никитовка Белгородская область 50° 22' 19.56" N, 38° 26' 11.04" E
Код аэродрома ИКАО
ZC4S
Код аэродрома RU
ЗЦ4С
Координаты
N50.37210° E038.43640°
Превышение над уровнем моря
206
Основная полоса
03/21
Курс магнитный
033/213
Длина основной ВПП
417
Ширина основной ВПП
18
Покрытие основной ВПП
Твёрдое (асфальт)
Освещение ВПП
Нет
Тип: 
Аэродром
Класс аэродрома: 
Принадлежность: 
ГА
Статус: 
Недействующий
Сайт: 
E-mail аэродрома: 
Страна: 
Россия
Регион: 
Белгородская область
Город: 
Дополнительная информация: 
Белгородская область, Россия. Площадка АХР. Магнитное склонение: +8.4°

Скидки на навигаторы!

Найти трансфер

С помощью этой формы Вы можете найти трансфер из аэропорта Никитовка в город, аэропорт или вокзал:

Погода в аэропортах:

Авиационная погода в Гомеле

Регион: 
Погода METAR: 
UMGG 072100Z 14006G09MPS 3200 -SHSN BLSN OVC010CB M05/M07 Q1013 NOSIG
Время наблюдения
2022-12-07T21:00:00Z
Температура C
-5.0
Точка росы
-7.0
Направление ветра
140
Скорость ветра (узлы)
12
Метео видимость
1.99
Облачность
OVC
Нижняя граница облачности (футы)
1000
Явления погоды
-SHSN BLSN
Условия полета
IFR
Аэропорт подробнее: 
OVC – сплошная облачность;
-SHSN - слабый ливневой снег, BLSN – метель низовая или общая;

Авиационная погода в Брянске

Регион: 
Погода METAR: 
UUBP 072100Z AUTO 13005MPS 1900 SN ///004 M06/M08 Q1017 NOSIG RMK QFE745/0993
Время наблюдения
2022-12-07T21:00:00Z
Температура C
-6.0
Точка росы
-8.0
Направление ветра
130
Скорость ветра (узлы)
10
Метео видимость
1.18
Облачность
Нижняя граница облачности (футы)
Явления погоды
SN
Условия полета
Аэропорт подробнее: 
SN – снег;

Авиационная погода в Екатеринбурге

Регион: 
Погода METAR: 
USSS 072100Z 26004MPS 9999 -SN SCT005 M15/M17 Q1034 R26L/39//37 TEMPO BKN003 RMK QFE754/1006
Время наблюдения
2022-12-07T21:00:00Z
Температура C
-15.0
Точка росы
-17.0
Направление ветра
260
Скорость ветра (узлы)
8
Метео видимость
6.21
Облачность
SCT
Нижняя граница облачности (футы)
500
Явления погоды
-SN
Условия полета
VFR
Аэропорт подробнее: 
SCT – разбросанная отдельная облачность;
-SN – слабый снег;

Авиационная погода в Тулча

Регион: 
Погода METAR: 
LRTC 072100Z AUTO 07001KT 5000 BR BKN009/// 05/02 Q1016
Время наблюдения
2022-12-07T21:00:00Z
Температура C
5.0
Точка росы
2.0
Направление ветра
70
Скорость ветра (узлы)
1
Метео видимость
3.11
Облачность
BKN
Нижняя граница облачности (футы)
900
Явления погоды
BR
Условия полета
IFR
BKN – значительная (рассеянная, разорванная) облачность;
BR – дымка (видимость от 1 до 9 км);